Home   Weather   Germany   Halle   Past weeks
Flag for Germany

Past Weather in Halle, Saxony-Anhalt, Germany — Yesterday and Last 2 Weeks

Currently: 90 °F. Sunny. (Weather station: Leipzig-Schkeuditz, Germany). See more current weather

Past Weather in Halle — Graph

°F

Halle Temperature Yesterday

Maximum temperature yesterday: 91 °F (at 2:20 pm)
Minimum temperature yesterday: 63 °F (at 5:20 am)
Average temperature yesterday: 80 °F

High & Low Weather Summary for the Past Weeks

 TemperatureHumidityPressure
High91 °F (Jun 18, 2:20 pm)100% (Jun 5, 9:50 pm)30.30 "Hg (Jun 5, 9:50 pm)
Low50 °F (Jun 13, 4:20 am)31% (Jun 17, 2:20 pm)29.89 "Hg (Jun 18, 7:20 pm)
Average69 °F70%30.09 "Hg
* Reported Jun 4 2:20 pm — Jun 19 2:20 pm, Halle. Weather by CustomWeather, © 2021

Note: Actual official high and low records may vary slightly from our data, if they occured in-between our weather recording intervals... More about our weather records

Halle Weather History for the Previous 24 Hours

Scroll right to see more
 ConditionsComfort  
Time TempWeatherWind HumidityBarometerVisibility
2:20 pm
Sat, Jun 19
91 °FSunny.6 mph36%29.92 "Hg10 mi
1:50 pm91 °FPassing clouds.9 mph38%29.92 "HgN/A
1:20 pm90 °FPassing clouds.13 mph41%29.95 "HgN/A
12:50 pm90 °FPassing clouds.9 mph41%29.95 "HgN/A
12:20 pm88 °FPassing clouds.7 mph46%29.95 "HgN/A
11:50 am86 °FPassing clouds.9 mph49%29.95 "HgN/A
11:20 am88 °FPassing clouds.8 mph46%29.95 "HgN/A
10:50 am86 °FPassing clouds.9 mph49%29.95 "HgN/A
10:20 am86 °FPassing clouds.9 mph49%29.95 "HgN/A
9:20 am81 °FPassing clouds.8 mph58%29.95 "HgN/A
8:50 am79 °FSunny.8 mph58%29.95 "Hg10 mi
8:20 am79 °FSunny.7 mph54%29.95 "Hg10 mi
7:50 am75 °FSunny.8 mph65%29.92 "Hg10 mi
7:20 am73 °FPassing clouds.8 mph69%29.95 "HgN/A
6:50 am73 °FPassing clouds.6 mph69%29.92 "HgN/A
6:20 am72 °FSunny.6 mph73%29.92 "Hg10 mi
5:50 am70 °FSunny.7 mph78%29.92 "Hg10 mi
5:20 am70 °FSunny.6 mph73%29.92 "Hg10 mi
4:50 am68 °FClear.7 mph78%29.92 "Hg10 mi
4:20 am68 °FClear.2 mph78%29.92 "Hg10 mi
3:50 am70 °FClear.5 mph73%29.92 "Hg10 mi
3:20 am70 °FClear.7 mph78%29.92 "Hg10 mi
2:50 am72 °FClear.8 mph73%29.92 "Hg10 mi
2:20 am73 °FClear.9 mph69%29.92 "Hg10 mi
1:50 am73 °FClear.8 mph65%29.92 "Hg10 mi
1:20 am75 °FClear.7 mph61%29.92 "Hg10 mi
12:50 am73 °FClear.7 mph65%29.92 "Hg10 mi
12:20 am73 °FClear.8 mph65%29.92 "Hg10 mi
11:50 pm
Fri, Jun 18
72 °FClear.8 mph69%29.92 "Hg10 mi
11:20 pm75 °FClear.7 mph57%29.92 "Hg10 mi
10:50 pm75 °FClear.7 mph57%29.92 "Hg10 mi
10:20 pm75 °FPassing clouds.7 mph61%29.92 "HgN/A
9:50 pm77 °FClear.6 mph57%29.92 "Hg10 mi
9:20 pm79 °FSunny.7 mph58%29.92 "Hg10 mi
8:50 pm82 °FSunny.7 mph55%29.89 "Hg10 mi
8:20 pm84 °FSunny.5 mph55%29.92 "Hg10 mi
7:50 pm86 °FPassing clouds.6 mph43%29.92 "HgN/A
7:20 pm88 °FSunny.5 mph38%29.89 "Hg10 mi
6:50 pm90 °FSunny.7 mph33%29.92 "Hg10 mi
6:20 pm90 °FSunny.7 mph33%29.92 "Hg10 mi
5:50 pm90 °FSunny.8 mph33%29.92 "Hg10 mi
5:20 pm91 °FPassing clouds.8 mph34%29.92 "HgN/A
4:50 pm90 °FPassing clouds.7 mph33%29.92 "HgN/A
4:20 pm91 °FPassing clouds.8 mph34%29.92 "HgN/A
3:50 pm91 °FSunny.8 mph34%29.92 "Hg10 mi
3:20 pm91 °FSunny.7 mph34%29.92 "Hg10 mi
Weather by CustomWeather, © 2021

See weather overview